sensor_id;sensor_type;location;lat;lon;timestamp;P1;durP1;ratioP1;P2;durP2;ratioP2
24383;SDS011;12504;52.870;8.798;2023-07-31T00:01:30;9.35;;;4.57;;
24383;SDS011;12504;52.870;8.798;2023-07-31T00:03:56;6.75;;;3.65;;
24383;SDS011;12504;52.870;8.798;2023-07-31T00:06:21;6.90;;;3.58;;
24383;SDS011;12504;52.870;8.798;2023-07-31T00:08:47;10.93;;;3.53;;
24383;SDS011;12504;52.870;8.798;2023-07-31T00:11:12;5.65;;;3.60;;
24383;SDS011;12504;52.870;8.798;2023-07-31T00:13:38;11.82;;;3.78;;
24383;SDS011;12504;52.870;8.798;2023-07-31T00:16:04;9.20;;;3.63;;
24383;SDS011;12504;52.870;8.798;2023-07-31T00:18:29;6.93;;;3.95;;
24383;SDS011;12504;52.870;8.798;2023-07-31T00:20:55;10.32;;;3.90;;
24383;SDS011;12504;52.870;8.798;2023-07-31T00:23:21;10.38;;;3.10;;
24383;SDS011;12504;52.870;8.798;2023-07-31T00:25:47;8.25;;;3.78;;
24383;SDS011;12504;52.870;8.798;2023-07-31T00:28:12;7.78;;;3.45;;
24383;SDS011;12504;52.870;8.798;2023-07-31T00:30:38;6.25;;;3.63;;
24383;SDS011;12504;52.870;8.798;2023-07-31T00:33:04;10.05;;;4.35;;
24383;SDS011;12504;52.870;8.798;2023-07-31T00:35:30;6.22;;;3.63;;
24383;SDS011;12504;52.870;8.798;2023-07-31T00:37:57;6.25;;;3.47;;
24383;SDS011;12504;52.870;8.798;2023-07-31T00:40:23;4.25;;;3.03;;
24383;SDS011;12504;52.870;8.798;2023-07-31T00:42:49;6.80;;;3.13;;
24383;SDS011;12504;52.870;8.798;2023-07-31T00:45:15;5.63;;;2.92;;
24383;SDS011;12504;52.870;8.798;2023-07-31T00:47:40;4.32;;;2.47;;
24383;SDS011;12504;52.870;8.798;2023-07-31T00:50:06;6.15;;;3.47;;
24383;SDS011;12504;52.870;8.798;2023-07-31T00:52:32;5.18;;;3.15;;
24383;SDS011;12504;52.870;8.798;2023-07-31T00:54:58;5.20;;;2.92;;
24383;SDS011;12504;52.870;8.798;2023-07-31T00:57:25;7.75;;;3.08;;
24383;SDS011;12504;52.870;8.798;2023-07-31T00:59:50;5.30;;;2.95;;
24383;SDS011;12504;52.870;8.798;2023-07-31T01:02:19;6.65;;;2.85;;
24383;SDS011;12504;52.870;8.798;2023-07-31T01:04:44;6.32;;;2.55;;
24383;SDS011;12504;52.870;8.798;2023-07-31T01:07:13;3.67;;;2.55;;
24383;SDS011;12504;52.870;8.798;2023-07-31T01:12:43;5.25;;;2.83;;
24383;SDS011;12504;52.870;8.798;2023-07-31T01:15:11;4.40;;;2.42;;
24383;SDS011;12504;52.870;8.798;2023-07-31T01:17:39;5.47;;;2.83;;
24383;SDS011;12504;52.870;8.798;2023-07-31T01:20:12;3.10;;;2.15;;
24383;SDS011;12504;52.870;8.798;2023-07-31T01:28:39;8.90;;;2.92;;
24383;SDS011;12504;52.870;8.798;2023-07-31T01:31:24;4.35;;;2.78;;
24383;SDS011;12504;52.870;8.798;2023-07-31T01:33:51;4.97;;;3.38;;
24383;SDS011;12504;52.870;8.798;2023-07-31T01:36:19;6.45;;;3.08;;
24383;SDS011;12504;52.870;8.798;2023-07-31T01:38:45;7.53;;;3.17;;
24383;SDS011;12504;52.870;8.798;2023-07-31T01:41:11;6.65;;;3.08;;
24383;SDS011;12504;52.870;8.798;2023-07-31T01:43:40;4.53;;;3.60;;
24383;SDS011;12504;52.870;8.798;2023-07-31T01:46:06;6.03;;;3.38;;
24383;SDS011;12504;52.870;8.798;2023-07-31T01:48:31;5.80;;;4.03;;
24383;SDS011;12504;52.870;8.798;2023-07-31T01:51:02;5.72;;;3.97;;
24383;SDS011;12504;52.870;8.798;2023-07-31T01:53:28;7.50;;;3.33;;
24383;SDS011;12504;52.870;8.798;2023-07-31T01:55:56;6.32;;;3.88;;
24383;SDS011;12504;52.870;8.798;2023-07-31T01:58:22;6.43;;;3.92;;
24383;SDS011;12504;52.870;8.798;2023-07-31T02:00:48;6.30;;;3.92;;
24383;SDS011;12504;52.870;8.798;2023-07-31T02:03:13;10.93;;;5.70;;
24383;SDS011;12504;52.870;8.798;2023-07-31T02:05:45;7.25;;;3.78;;
24383;SDS011;12504;52.870;8.798;2023-07-31T02:08:12;6.70;;;4.22;;
24383;SDS011;12504;52.870;8.798;2023-07-31T02:10:38;7.18;;;5.32;;
24383;SDS011;12504;52.870;8.798;2023-07-31T02:13:04;8.00;;;4.35;;
24383;SDS011;12504;52.870;8.798;2023-07-31T02:15:30;7.90;;;4.88;;
24383;SDS011;12504;52.870;8.798;2023-07-31T02:17:56;8.05;;;5.50;;
24383;SDS011;12504;52.870;8.798;2023-07-31T02:20:22;9.52;;;5.72;;
24383;SDS011;12504;52.870;8.798;2023-07-31T02:22:47;9.18;;;4.97;;
24383;SDS011;12504;52.870;8.798;2023-07-31T02:25:13;8.63;;;6.20;;
24383;SDS011;12504;52.870;8.798;2023-07-31T02:27:39;7.65;;;4.25;;
24383;SDS011;12504;52.870;8.798;2023-07-31T02:30:05;6.75;;;4.47;;
24383;SDS011;12504;52.870;8.798;2023-07-31T02:32:31;7.22;;;5.22;;
24383;SDS011;12504;52.870;8.798;2023-07-31T02:34:57;9.20;;;5.80;;
24383;SDS011;12504;52.870;8.798;2023-07-31T02:37:24;11.10;;;7.60;;
24383;SDS011;12504;52.870;8.798;2023-07-31T02:39:51;9.70;;;6.78;;
24383;SDS011;12504;52.870;8.798;2023-07-31T02:42:17;11.57;;;6.22;;
24383;SDS011;12504;52.870;8.798;2023-07-31T02:44:42;10.52;;;6.53;;
24383;SDS011;12504;52.870;8.798;2023-07-31T02:47:08;15.38;;;7.72;;
24383;SDS011;12504;52.870;8.798;2023-07-31T02:49:34;12.13;;;6.40;;
24383;SDS011;12504;52.870;8.798;2023-07-31T02:52:00;13.60;;;8.15;;
24383;SDS011;12504;52.870;8.798;2023-07-31T02:54:25;11.98;;;6.32;;
24383;SDS011;12504;52.870;8.798;2023-07-31T02:56:51;13.48;;;6.60;;
24383;SDS011;12504;52.870;8.798;2023-07-31T02:59:17;12.52;;;6.38;;
24383;SDS011;12504;52.870;8.798;2023-07-31T03:01:43;12.18;;;6.13;;
24383;SDS011;12504;52.870;8.798;2023-07-31T03:04:09;9.93;;;6.93;;
24383;SDS011;12504;52.870;8.798;2023-07-31T03:06:35;11.35;;;6.63;;
24383;SDS011;12504;52.870;8.798;2023-07-31T03:09:00;10.68;;;6.03;;
24383;SDS011;12504;52.870;8.798;2023-07-31T03:11:27;14.45;;;8.45;;
24383;SDS011;12504;52.870;8.798;2023-07-31T03:13:52;9.82;;;6.97;;
24383;SDS011;12504;52.870;8.798;2023-07-31T03:16:19;11.55;;;7.15;;
24383;SDS011;12504;52.870;8.798;2023-07-31T03:18:44;11.10;;;8.43;;
24383;SDS011;12504;52.870;8.798;2023-07-31T03:21:10;12.13;;;7.40;;
24383;SDS011;12504;52.870;8.798;2023-07-31T03:23:36;12.48;;;8.43;;
24383;SDS011;12504;52.870;8.798;2023-07-31T03:26:02;11.85;;;8.27;;
24383;SDS011;12504;52.870;8.798;2023-07-31T03:28:32;14.65;;;8.05;;
24383;SDS011;12504;52.870;8.798;2023-07-31T03:30:58;14.65;;;8.07;;
24383;SDS011;12504;52.870;8.798;2023-07-31T03:33:25;16.40;;;9.30;;
24383;SDS011;12504;52.870;8.798;2023-07-31T03:35:51;16.00;;;9.88;;
24383;SDS011;12504;52.870;8.798;2023-07-31T03:38:17;15.50;;;9.82;;
24383;SDS011;12504;52.870;8.798;2023-07-31T03:40:43;16.63;;;10.20;;
24383;SDS011;12504;52.870;8.798;2023-07-31T03:43:10;18.40;;;11.23;;
24383;SDS011;12504;52.870;8.798;2023-07-31T03:45:38;17.40;;;10.25;;
24383;SDS011;12504;52.870;8.798;2023-07-31T03:48:04;18.67;;;11.30;;
24383;SDS011;12504;52.870;8.798;2023-07-31T03:50:30;14.75;;;10.55;;
24383;SDS011;12504;52.870;8.798;2023-07-31T03:52:55;16.35;;;9.82;;
24383;SDS011;12504;52.870;8.798;2023-07-31T03:55:21;16.63;;;9.35;;
24383;SDS011;12504;52.870;8.798;2023-07-31T03:57:47;17.38;;;9.30;;
24383;SDS011;12504;52.870;8.798;2023-07-31T04:00:13;13.52;;;7.63;;
24383;SDS011;12504;52.870;8.798;2023-07-31T04:02:40;14.52;;;8.13;;
24383;SDS011;12504;52.870;8.798;2023-07-31T04:05:06;13.13;;;9.27;;
24383;SDS011;12504;52.870;8.798;2023-07-31T04:07:32;11.77;;;7.15;;
24383;SDS011;12504;52.870;8.798;2023-07-31T04:10:01;12.82;;;6.97;;
24383;SDS011;12504;52.870;8.798;2023-07-31T04:12:26;10.32;;;6.18;;
24383;SDS011;12504;52.870;8.798;2023-07-31T04:14:52;11.40;;;6.03;;
24383;SDS011;12504;52.870;8.798;2023-07-31T04:17:18;10.88;;;5.80;;
24383;SDS011;12504;52.870;8.798;2023-07-31T04:19:43;7.20;;;5.20;;
24383;SDS011;12504;52.870;8.798;2023-07-31T04:22:09;10.25;;;6.22;;
24383;SDS011;12504;52.870;8.798;2023-07-31T04:24:35;8.85;;;5.72;;
24383;SDS011;12504;52.870;8.798;2023-07-31T04:27:01;9.38;;;6.13;;
24383;SDS011;12504;52.870;8.798;2023-07-31T04:29:26;13.48;;;6.22;;
24383;SDS011;12504;52.870;8.798;2023-07-31T04:31:52;9.57;;;5.97;;
24383;SDS011;12504;52.870;8.798;2023-07-31T04:34:18;11.57;;;6.68;;
24383;SDS011;12504;52.870;8.798;2023-07-31T04:36:43;9.40;;;5.97;;
24383;SDS011;12504;52.870;8.798;2023-07-31T04:39:09;12.02;;;6.30;;
24383;SDS011;12504;52.870;8.798;2023-07-31T04:41:35;9.75;;;5.20;;
24383;SDS011;12504;52.870;8.798;2023-07-31T04:44:01;10.93;;;5.82;;
24383;SDS011;12504;52.870;8.798;2023-07-31T04:46:26;8.43;;;5.43;;
24383;SDS011;12504;52.870;8.798;2023-07-31T04:48:52;7.10;;;4.20;;
24383;SDS011;12504;52.870;8.798;2023-07-31T04:51:17;7.63;;;5.15;;
24383;SDS011;12504;52.870;8.798;2023-07-31T04:53:43;6.30;;;4.15;;
24383;SDS011;12504;52.870;8.798;2023-07-31T04:56:09;8.90;;;4.70;;
24383;SDS011;12504;52.870;8.798;2023-07-31T04:58:35;5.55;;;3.95;;
24383;SDS011;12504;52.870;8.798;2023-07-31T05:01:00;6.10;;;3.67;;
24383;SDS011;12504;52.870;8.798;2023-07-31T05:03:26;5.50;;;3.63;;
24383;SDS011;12504;52.870;8.798;2023-07-31T05:05:51;5.00;;;3.88;;
24383;SDS011;12504;52.870;8.798;2023-07-31T05:08:17;5.97;;;3.35;;
24383;SDS011;12504;52.870;8.798;2023-07-31T05:10:43;5.22;;;3.33;;
24383;SDS011;12504;52.870;8.798;2023-07-31T05:13:09;6.57;;;3.28;;
24383;SDS011;12504;52.870;8.798;2023-07-31T05:15:34;8.60;;;3.50;;
24383;SDS011;12504;52.870;8.798;2023-07-31T05:18:00;5.45;;;3.13;;
24383;SDS011;12504;52.870;8.798;2023-07-31T05:20:26;4.63;;;3.33;;
24383;SDS011;12504;52.870;8.798;2023-07-31T05:22:52;6.20;;;4.32;;
24383;SDS011;12504;52.870;8.798;2023-07-31T05:25:18;6.85;;;3.80;;
24383;SDS011;12504;52.870;8.798;2023-07-31T05:27:44;6.50;;;4.07;;
24383;SDS011;12504;52.870;8.798;2023-07-31T05:30:10;7.05;;;3.80;;
24383;SDS011;12504;52.870;8.798;2023-07-31T05:32:36;4.03;;;2.42;;
24383;SDS011;12504;52.870;8.798;2023-07-31T05:35:02;4.32;;;2.70;;
24383;SDS011;12504;52.870;8.798;2023-07-31T05:37:28;4.25;;;2.72;;
24383;SDS011;12504;52.870;8.798;2023-07-31T05:39:54;5.00;;;2.03;;
24383;SDS011;12504;52.870;8.798;2023-07-31T05:42:22;3.88;;;2.00;;
24383;SDS011;12504;52.870;8.798;2023-07-31T05:44:48;3.90;;;2.08;;
24383;SDS011;12504;52.870;8.798;2023-07-31T05:47:14;3.90;;;2.17;;
24383;SDS011;12504;52.870;8.798;2023-07-31T05:49:40;4.10;;;2.05;;
24383;SDS011;12504;52.870;8.798;2023-07-31T05:52:06;2.35;;;1.35;;
24383;SDS011;12504;52.870;8.798;2023-07-31T05:54:32;1.73;;;1.33;;
24383;SDS011;12504;52.870;8.798;2023-07-31T05:56:59;1.52;;;1.33;;
24383;SDS011;12504;52.870;8.798;2023-07-31T05:59:24;2.08;;;1.15;;
24383;SDS011;12504;52.870;8.798;2023-07-31T06:01:50;1.08;;;0.98;;
24383;SDS011;12504;52.870;8.798;2023-07-31T06:04:15;1.70;;;1.10;;
24383;SDS011;12504;52.870;8.798;2023-07-31T06:06:41;1.65;;;1.20;;
24383;SDS011;12504;52.870;8.798;2023-07-31T06:09:07;1.88;;;1.00;;
24383;SDS011;12504;52.870;8.798;2023-07-31T06:11:34;1.85;;;0.90;;
24383;SDS011;12504;52.870;8.798;2023-07-31T06:14:00;1.23;;;0.90;;
24383;SDS011;12504;52.870;8.798;2023-07-31T06:16:26;2.15;;;0.80;;
24383;SDS011;12504;52.870;8.798;2023-07-31T06:18:52;2.45;;;0.77;;
24383;SDS011;12504;52.870;8.798;2023-07-31T06:21:18;1.08;;;1.00;;
24383;SDS011;12504;52.870;8.798;2023-07-31T06:23:43;1.50;;;0.73;;
24383;SDS011;12504;52.870;8.798;2023-07-31T06:26:09;1.45;;;0.93;;
24383;SDS011;12504;52.870;8.798;2023-07-31T06:28:35;1.52;;;0.85;;
24383;SDS011;12504;52.870;8.798;2023-07-31T06:31:00;2.55;;;1.08;;
24383;SDS011;12504;52.870;8.798;2023-07-31T06:33:27;4.63;;;1.48;;
24383;SDS011;12504;52.870;8.798;2023-07-31T06:35:53;3.55;;;1.00;;
24383;SDS011;12504;52.870;8.798;2023-07-31T06:38:25;2.60;;;1.33;;
24383;SDS011;12504;52.870;8.798;2023-07-31T06:40:51;3.42;;;1.88;;
24383;SDS011;12504;52.870;8.798;2023-07-31T06:43:17;2.72;;;1.45;;
24383;SDS011;12504;52.870;8.798;2023-07-31T06:45:43;2.30;;;1.30;;
24383;SDS011;12504;52.870;8.798;2023-07-31T06:48:08;2.72;;;1.48;;
24383;SDS011;12504;52.870;8.798;2023-07-31T06:50:34;3.22;;;1.85;;
24383;SDS011;12504;52.870;8.798;2023-07-31T06:53:00;3.25;;;1.90;;
24383;SDS011;12504;52.870;8.798;2023-07-31T06:55:26;4.20;;;2.00;;
24383;SDS011;12504;52.870;8.798;2023-07-31T06:57:52;5.18;;;2.38;;
24383;SDS011;12504;52.870;8.798;2023-07-31T07:00:19;3.42;;;2.22;;
24383;SDS011;12504;52.870;8.798;2023-07-31T07:02:46;3.85;;;2.70;;
24383;SDS011;12504;52.870;8.798;2023-07-31T07:05:13;7.05;;;3.00;;
24383;SDS011;12504;52.870;8.798;2023-07-31T07:07:39;6.70;;;3.83;;
24383;SDS011;12504;52.870;8.798;2023-07-31T07:10:05;9.80;;;4.65;;
24383;SDS011;12504;52.870;8.798;2023-07-31T07:12:32;9.00;;;5.22;;
24383;SDS011;12504;52.870;8.798;2023-07-31T07:14:58;10.30;;;5.40;;
24383;SDS011;12504;52.870;8.798;2023-07-31T07:17:25;10.68;;;5.68;;
24383;SDS011;12504;52.870;8.798;2023-07-31T07:19:51;10.90;;;5.50;;
24383;SDS011;12504;52.870;8.798;2023-07-31T07:22:17;13.13;;;5.72;;
24383;SDS011;12504;52.870;8.798;2023-07-31T07:24:43;13.75;;;5.95;;
24383;SDS011;12504;52.870;8.798;2023-07-31T07:27:09;17.02;;;7.63;;
24383;SDS011;12504;52.870;8.798;2023-07-31T07:29:35;15.70;;;7.13;;
24383;SDS011;12504;52.870;8.798;2023-07-31T07:32:03;19.73;;;8.00;;
24383;SDS011;12504;52.870;8.798;2023-07-31T07:34:29;18.58;;;9.55;;
24383;SDS011;12504;52.870;8.798;2023-07-31T07:36:55;20.45;;;11.23;;
24383;SDS011;12504;52.870;8.798;2023-07-31T07:39:20;25.08;;;11.60;;
24383;SDS011;12504;52.870;8.798;2023-07-31T07:41:46;27.75;;;13.10;;
24383;SDS011;12504;52.870;8.798;2023-07-31T07:44:12;33.53;;;13.68;;
24383;SDS011;12504;52.870;8.798;2023-07-31T07:46:38;29.15;;;14.90;;
24383;SDS011;12504;52.870;8.798;2023-07-31T07:49:04;28.00;;;12.32;;
24383;SDS011;12504;52.870;8.798;2023-07-31T07:51:30;26.10;;;13.43;;
24383;SDS011;12504;52.870;8.798;2023-07-31T07:53:57;24.42;;;13.25;;
24383;SDS011;12504;52.870;8.798;2023-07-31T07:56:23;27.65;;;13.00;;
24383;SDS011;12504;52.870;8.798;2023-07-31T07:58:50;30.30;;;14.07;;
24383;SDS011;12504;52.870;8.798;2023-07-31T08:01:16;30.13;;;14.38;;
24383;SDS011;12504;52.870;8.798;2023-07-31T08:03:42;40.50;;;14.63;;
24383;SDS011;12504;52.870;8.798;2023-07-31T08:06:07;33.70;;;14.38;;
24383;SDS011;12504;52.870;8.798;2023-07-31T08:08:37;27.27;;;13.13;;
24383;SDS011;12504;52.870;8.798;2023-07-31T08:11:03;35.35;;;13.98;;
24383;SDS011;12504;52.870;8.798;2023-07-31T08:13:29;30.48;;;14.23;;
24383;SDS011;12504;52.870;8.798;2023-07-31T08:15:56;27.35;;;12.82;;
24383;SDS011;12504;52.870;8.798;2023-07-31T08:18:21;26.20;;;12.90;;
24383;SDS011;12504;52.870;8.798;2023-07-31T08:20:47;27.10;;;12.32;;
24383;SDS011;12504;52.870;8.798;2023-07-31T08:23:13;27.67;;;13.05;;
24383;SDS011;12504;52.870;8.798;2023-07-31T08:25:39;24.52;;;12.73;;
24383;SDS011;12504;52.870;8.798;2023-07-31T08:28:05;23.67;;;11.68;;
24383;SDS011;12504;52.870;8.798;2023-07-31T08:30:31;22.08;;;10.82;;
24383;SDS011;12504;52.870;8.798;2023-07-31T08:32:58;24.30;;;10.65;;
24383;SDS011;12504;52.870;8.798;2023-07-31T08:35:25;25.05;;;11.65;;
24383;SDS011;12504;52.870;8.798;2023-07-31T08:37:53;22.25;;;11.90;;
24383;SDS011;12504;52.870;8.798;2023-07-31T08:40:19;33.00;;;12.88;;
24383;SDS011;12504;52.870;8.798;2023-07-31T08:42:47;18.30;;;10.98;;
24383;SDS011;12504;52.870;8.798;2023-07-31T08:45:18;20.58;;;10.15;;
24383;SDS011;12504;52.870;8.798;2023-07-31T08:47:45;26.83;;;10.07;;
24383;SDS011;12504;52.870;8.798;2023-07-31T08:50:13;22.40;;;11.00;;
24383;SDS011;12504;52.870;8.798;2023-07-31T08:52:40;18.13;;;9.52;;
24383;SDS011;12504;52.870;8.798;2023-07-31T08:55:06;17.95;;;8.27;;
24383;SDS011;12504;52.870;8.798;2023-07-31T08:57:34;14.10;;;8.18;;
24383;SDS011;12504;52.870;8.798;2023-07-31T09:00:02;18.38;;;7.20;;
24383;SDS011;12504;52.870;8.798;2023-07-31T09:02:31;12.55;;;6.38;;
24383;SDS011;12504;52.870;8.798;2023-07-31T09:05:18;12.85;;;6.57;;
24383;SDS011;12504;52.870;8.798;2023-07-31T09:07:45;11.82;;;6.15;;
24383;SDS011;12504;52.870;8.798;2023-07-31T09:10:12;16.17;;;6.38;;
24383;SDS011;12504;52.870;8.798;2023-07-31T09:12:39;8.35;;;5.63;;
24383;SDS011;12504;52.870;8.798;2023-07-31T09:15:05;9.57;;;5.38;;
24383;SDS011;12504;52.870;8.798;2023-07-31T09:17:35;10.52;;;5.55;;
24383;SDS011;12504;52.870;8.798;2023-07-31T09:20:22;11.45;;;5.88;;
24383;SDS011;12504;52.870;8.798;2023-07-31T09:22:50;9.30;;;6.43;;
24383;SDS011;12504;52.870;8.798;2023-07-31T09:25:20;8.35;;;5.00;;
24383;SDS011;12504;52.870;8.798;2023-07-31T09:30:31;12.68;;;5.45;;
24383;SDS011;12504;52.870;8.798;2023-07-31T09:33:09;12.52;;;6.25;;
24383;SDS011;12504;52.870;8.798;2023-07-31T09:35:35;9.45;;;4.65;;
24383;SDS011;12504;52.870;8.798;2023-07-31T09:38:03;10.32;;;5.03;;
24383;SDS011;12504;52.870;8.798;2023-07-31T09:40:38;10.68;;;5.90;;
24383;SDS011;12504;52.870;8.798;2023-07-31T09:43:08;8.07;;;4.57;;
24383;SDS011;12504;52.870;8.798;2023-07-31T09:45:42;8.98;;;4.75;;
24383;SDS011;12504;52.870;8.798;2023-07-31T09:50:41;10.18;;;5.03;;
24383;SDS011;12504;52.870;8.798;2023-07-31T09:53:08;6.85;;;3.47;;
24383;SDS011;12504;52.870;8.798;2023-07-31T09:55:35;9.15;;;4.40;;
24383;SDS011;12504;52.870;8.798;2023-07-31T09:58:05;8.90;;;4.93;;
24383;SDS011;12504;52.870;8.798;2023-07-31T10:00:32;8.63;;;4.63;;
24383;SDS011;12504;52.870;8.798;2023-07-31T10:02:59;6.00;;;2.88;;
24383;SDS011;12504;52.870;8.798;2023-07-31T10:05:29;8.27;;;4.13;;
24383;SDS011;12504;52.870;8.798;2023-07-31T10:07:59;12.52;;;4.38;;
24383;SDS011;12504;52.870;8.798;2023-07-31T10:10:25;6.78;;;3.30;;
24383;SDS011;12504;52.870;8.798;2023-07-31T10:12:52;6.05;;;3.33;;
24383;SDS011;12504;52.870;8.798;2023-07-31T10:15:19;5.38;;;3.03;;
24383;SDS011;12504;52.870;8.798;2023-07-31T10:17:47;4.70;;;3.25;;
24383;SDS011;12504;52.870;8.798;2023-07-31T10:20:14;3.92;;;3.13;;
24383;SDS011;12504;52.870;8.798;2023-07-31T10:22:41;5.05;;;3.22;;
24383;SDS011;12504;52.870;8.798;2023-07-31T10:25:09;4.90;;;2.25;;
24383;SDS011;12504;52.870;8.798;2023-07-31T10:27:35;7.47;;;2.55;;
24383;SDS011;12504;52.870;8.798;2023-07-31T10:30:03;2.58;;;1.88;;
24383;SDS011;12504;52.870;8.798;2023-07-31T10:32:31;4.10;;;2.28;;
24383;SDS011;12504;52.870;8.798;2023-07-31T10:34:57;3.50;;;1.67;;
24383;SDS011;12504;52.870;8.798;2023-07-31T10:37:44;4.03;;;1.70;;
24383;SDS011;12504;52.870;8.798;2023-07-31T10:40:10;4.03;;;1.80;;
24383;SDS011;12504;52.870;8.798;2023-07-31T10:45:10;3.20;;;1.75;;
24383;SDS011;12504;52.870;8.798;2023-07-31T10:47:36;2.47;;;1.55;;
24383;SDS011;12504;52.870;8.798;2023-07-31T10:50:20;3.50;;;1.60;;
24383;SDS011;12504;52.870;8.798;2023-07-31T10:52:53;3.13;;;1.95;;
24383;SDS011;12504;52.870;8.798;2023-07-31T10:55:33;2.20;;;1.55;;
24383;SDS011;12504;52.870;8.798;2023-07-31T10:58:12;2.15;;;1.88;;
24383;SDS011;12504;52.870;8.798;2023-07-31T11:00:39;3.83;;;1.70;;
24383;SDS011;12504;52.870;8.798;2023-07-31T11:03:09;2.95;;;1.98;;
24383;SDS011;12504;52.870;8.798;2023-07-31T11:10:45;2.97;;;2.03;;
24383;SDS011;12504;52.870;8.798;2023-07-31T11:13:12;2.38;;;1.80;;
24383;SDS011;12504;52.870;8.798;2023-07-31T11:15:38;1.65;;;1.30;;
24383;SDS011;12504;52.870;8.798;2023-07-31T11:18:04;2.30;;;2.05;;
24383;SDS011;12504;52.870;8.798;2023-07-31T11:20:33;2.35;;;1.58;;
24383;SDS011;12504;52.870;8.798;2023-07-31T11:23:03;1.42;;;1.27;;
24383;SDS011;12504;52.870;8.798;2023-07-31T11:25:34;7.20;;;2.17;;
24383;SDS011;12504;52.870;8.798;2023-07-31T11:28:06;1.80;;;1.20;;
24383;SDS011;12504;52.870;8.798;2023-07-31T11:30:38;1.75;;;1.52;;
24383;SDS011;12504;52.870;8.798;2023-07-31T11:33:06;3.33;;;1.35;;
24383;SDS011;12504;52.870;8.798;2023-07-31T11:35:32;1.50;;;1.30;;
24383;SDS011;12504;52.870;8.798;2023-07-31T11:37:59;1.73;;;1.38;;
24383;SDS011;12504;52.870;8.798;2023-07-31T11:40:26;1.98;;;1.40;;
24383;SDS011;12504;52.870;8.798;2023-07-31T11:42:55;1.70;;;1.30;;
24383;SDS011;12504;52.870;8.798;2023-07-31T11:45:24;2.47;;;1.63;;
24383;SDS011;12504;52.870;8.798;2023-07-31T11:47:55;1.45;;;1.35;;
24383;SDS011;12504;52.870;8.798;2023-07-31T11:50:21;1.48;;;1.20;;
24383;SDS011;12504;52.870;8.798;2023-07-31T11:52:49;3.03;;;1.65;;
24383;SDS011;12504;52.870;8.798;2023-07-31T11:55:28;1.95;;;1.75;;
24383;SDS011;12504;52.870;8.798;2023-07-31T11:57:55;2.30;;;1.45;;
24383;SDS011;12504;52.870;8.798;2023-07-31T12:00:22;1.45;;;1.20;;
24383;SDS011;12504;52.870;8.798;2023-07-31T12:02:49;2.05;;;1.67;;
24383;SDS011;12504;52.870;8.798;2023-07-31T12:05:16;2.10;;;1.90;;
24383;SDS011;12504;52.870;8.798;2023-07-31T12:07:51;2.45;;;2.25;;
24383;SDS011;12504;52.870;8.798;2023-07-31T12:10:37;2.42;;;1.88;;
24383;SDS011;12504;52.870;8.798;2023-07-31T12:13:03;3.25;;;1.88;;
24383;SDS011;12504;52.870;8.798;2023-07-31T12:15:45;2.55;;;2.03;;
24383;SDS011;12504;52.870;8.798;2023-07-31T12:18:15;3.42;;;2.00;;
24383;SDS011;12504;52.870;8.798;2023-07-31T12:20:45;3.35;;;2.38;;
24383;SDS011;12504;52.870;8.798;2023-07-31T12:23:21;3.88;;;2.58;;
24383;SDS011;12504;52.870;8.798;2023-07-31T12:26:11;3.25;;;2.47;;
24383;SDS011;12504;52.870;8.798;2023-07-31T12:28:42;3.35;;;2.63;;
24383;SDS011;12504;52.870;8.798;2023-07-31T12:31:09;3.45;;;2.63;;
24383;SDS011;12504;52.870;8.798;2023-07-31T12:33:37;3.55;;;2.85;;
24383;SDS011;12504;52.870;8.798;2023-07-31T12:36:07;2.88;;;2.50;;
24383;SDS011;12504;52.870;8.798;2023-07-31T12:38:34;3.95;;;2.50;;
24383;SDS011;12504;52.870;8.798;2023-07-31T12:41:00;2.75;;;1.83;;
24383;SDS011;12504;52.870;8.798;2023-07-31T12:43:26;3.17;;;2.15;;
24383;SDS011;12504;52.870;8.798;2023-07-31T12:45:54;3.65;;;2.30;;
24383;SDS011;12504;52.870;8.798;2023-07-31T12:48:20;3.20;;;1.77;;
24383;SDS011;12504;52.870;8.798;2023-07-31T12:50:46;3.63;;;2.08;;
24383;SDS011;12504;52.870;8.798;2023-07-31T12:53:12;2.40;;;1.90;;
24383;SDS011;12504;52.870;8.798;2023-07-31T12:55:37;3.03;;;2.40;;
24383;SDS011;12504;52.870;8.798;2023-07-31T12:58:03;4.03;;;2.40;;
24383;SDS011;12504;52.870;8.798;2023-07-31T13:00:29;3.72;;;2.33;;
24383;SDS011;12504;52.870;8.798;2023-07-31T13:02:55;3.38;;;2.10;;
24383;SDS011;12504;52.870;8.798;2023-07-31T13:05:21;4.03;;;2.72;;
24383;SDS011;12504;52.870;8.798;2023-07-31T13:07:47;3.25;;;2.08;;
24383;SDS011;12504;52.870;8.798;2023-07-31T13:10:13;7.45;;;2.70;;
24383;SDS011;12504;52.870;8.798;2023-07-31T13:12:39;3.55;;;2.50;;
24383;SDS011;12504;52.870;8.798;2023-07-31T13:15:05;4.57;;;3.13;;
24383;SDS011;12504;52.870;8.798;2023-07-31T13:17:35;3.40;;;2.53;;
24383;SDS011;12504;52.870;8.798;2023-07-31T13:20:00;3.30;;;2.40;;
24383;SDS011;12504;52.870;8.798;2023-07-31T13:22:26;4.68;;;2.35;;
24383;SDS011;12504;52.870;8.798;2023-07-31T13:24:52;2.72;;;2.35;;
24383;SDS011;12504;52.870;8.798;2023-07-31T13:27:18;4.57;;;2.83;;
24383;SDS011;12504;52.870;8.798;2023-07-31T13:29:46;4.75;;;2.63;;
24383;SDS011;12504;52.870;8.798;2023-07-31T13:32:16;4.18;;;2.53;;
24383;SDS011;12504;52.870;8.798;2023-07-31T13:34:43;3.40;;;2.38;;
24383;SDS011;12504;52.870;8.798;2023-07-31T13:37:09;9.65;;;3.60;;
24383;SDS011;12504;52.870;8.798;2023-07-31T13:39:35;4.80;;;2.97;;
24383;SDS011;12504;52.870;8.798;2023-07-31T13:42:04;5.75;;;3.95;;
24383;SDS011;12504;52.870;8.798;2023-07-31T13:44:33;4.80;;;3.47;;
24383;SDS011;12504;52.870;8.798;2023-07-31T13:46:59;5.30;;;3.70;;
24383;SDS011;12504;52.870;8.798;2023-07-31T13:49:25;5.07;;;3.50;;
24383;SDS011;12504;52.870;8.798;2023-07-31T13:51:51;5.55;;;3.17;;
24383;SDS011;12504;52.870;8.798;2023-07-31T13:54:17;8.13;;;3.42;;
24383;SDS011;12504;52.870;8.798;2023-07-31T13:56:43;5.60;;;3.58;;
24383;SDS011;12504;52.870;8.798;2023-07-31T13:59:09;5.60;;;3.63;;
24383;SDS011;12504;52.870;8.798;2023-07-31T14:01:35;5.18;;;3.88;;
24383;SDS011;12504;52.870;8.798;2023-07-31T14:04:01;8.32;;;4.82;;
24383;SDS011;12504;52.870;8.798;2023-07-31T14:06:27;5.05;;;3.92;;
24383;SDS011;12504;52.870;8.798;2023-07-31T14:08:53;6.93;;;3.97;;
24383;SDS011;12504;52.870;8.798;2023-07-31T14:11:20;5.80;;;3.83;;
24383;SDS011;12504;52.870;8.798;2023-07-31T14:13:46;6.57;;;4.22;;
24383;SDS011;12504;52.870;8.798;2023-07-31T14:16:11;6.32;;;4.47;;
24383;SDS011;12504;52.870;8.798;2023-07-31T14:18:37;6.32;;;4.57;;
24383;SDS011;12504;52.870;8.798;2023-07-31T14:21:03;12.88;;;5.05;;
24383;SDS011;12504;52.870;8.798;2023-07-31T14:23:28;5.90;;;4.43;;
24383;SDS011;12504;52.870;8.798;2023-07-31T14:25:54;5.80;;;4.60;;
24383;SDS011;12504;52.870;8.798;2023-07-31T14:28:20;7.72;;;5.53;;
24383;SDS011;12504;52.870;8.798;2023-07-31T14:30:45;7.00;;;5.10;;
24383;SDS011;12504;52.870;8.798;2023-07-31T14:33:12;8.48;;;4.78;;
24383;SDS011;12504;52.870;8.798;2023-07-31T14:35:37;8.52;;;4.85;;
24383;SDS011;12504;52.870;8.798;2023-07-31T14:38:03;10.32;;;5.35;;
24383;SDS011;12504;52.870;8.798;2023-07-31T14:40:29;6.13;;;4.43;;
24383;SDS011;12504;52.870;8.798;2023-07-31T14:42:54;9.82;;;5.13;;
24383;SDS011;12504;52.870;8.798;2023-07-31T14:45:20;8.60;;;5.32;;
24383;SDS011;12504;52.870;8.798;2023-07-31T14:47:46;6.75;;;5.63;;
24383;SDS011;12504;52.870;8.798;2023-07-31T14:50:12;5.72;;;4.32;;
24383;SDS011;12504;52.870;8.798;2023-07-31T14:52:37;10.80;;;5.80;;
24383;SDS011;12504;52.870;8.798;2023-07-31T14:55:03;9.25;;;4.82;;
24383;SDS011;12504;52.870;8.798;2023-07-31T14:57:29;6.65;;;4.32;;
24383;SDS011;12504;52.870;8.798;2023-07-31T14:59:55;8.45;;;4.97;;
24383;SDS011;12504;52.870;8.798;2023-07-31T15:02:21;9.88;;;3.67;;
24383;SDS011;12504;52.870;8.798;2023-07-31T15:04:46;6.78;;;4.35;;